createdAt,value
2023-05-12T00:01:49.244Z,90.70
2023-05-12T00:04:16.332Z,86.38
2023-05-12T00:06:43.428Z,88.67
2023-05-12T00:09:10.701Z,88.39
2023-05-12T00:11:38.512Z,86.29
2023-05-12T00:14:06.601Z,84.65
2023-05-12T00:16:33.828Z,82.24
2023-05-12T00:19:01.433Z,85.29
2023-05-12T00:21:28.669Z,84.93
2023-05-12T00:23:55.823Z,84.57
2023-05-12T00:26:22.969Z,82.98
2023-05-12T00:28:50.237Z,84.64
2023-05-12T00:31:17.513Z,84.53
2023-05-12T00:33:44.716Z,83.92
2023-05-12T00:36:11.752Z,84.64
2023-05-12T00:38:38.983Z,83.94
2023-05-12T00:41:06.222Z,83.36
2023-05-12T00:43:33.780Z,83.67
2023-05-12T00:46:04.920Z,83.32
2023-05-12T00:48:33.079Z,84.34
2023-05-12T00:51:01.453Z,80.45
2023-05-12T00:53:41.016Z,83.01
2023-05-12T00:56:16.939Z,83.64
2023-05-12T00:59:02.999Z,84.32
2023-05-12T01:01:30.636Z,84.90
2023-05-12T01:03:57.982Z,85.84
2023-05-12T01:06:35.867Z,88.56
2023-05-12T01:09:03.805Z,89.54
2023-05-12T01:11:30.919Z,91.29
2023-05-12T01:13:57.963Z,92.56
2023-05-12T01:16:32.125Z,96.46
2023-05-12T01:19:03.887Z,98.05
2023-05-12T01:21:32.039Z,99.76
2023-05-12T01:24:06.560Z,100.00
2023-05-12T01:26:33.712Z,100.00
2023-05-12T01:29:04.591Z,100.00
2023-05-12T01:31:33.227Z,100.00
2023-05-12T01:34:00.929Z,99.51
2023-05-12T01:36:28.708Z,98.81
2023-05-12T01:38:56.069Z,99.85
2023-05-12T01:41:23.275Z,100.00
2023-05-12T01:43:50.867Z,100.00
2023-05-12T01:46:18.080Z,100.00
2023-05-12T01:48:45.802Z,100.00
2023-05-12T01:51:13.775Z,100.00
2023-05-12T01:53:40.866Z,100.00
2023-05-12T01:56:08.060Z,100.00
2023-05-12T01:58:36.449Z,100.00
2023-05-12T02:01:04.219Z,100.00
2023-05-12T02:03:31.372Z,100.00
2023-05-12T02:05:58.760Z,100.00
2023-05-12T02:08:26.055Z,100.00
2023-05-12T02:11:05.153Z,99.75
2023-05-12T02:13:32.878Z,90.36
2023-05-12T02:16:00.702Z,83.37
2023-05-12T02:18:28.284Z,78.02
2023-05-12T02:21:15.403Z,70.67
2023-05-12T02:23:42.488Z,65.86
2023-05-12T02:26:09.584Z,63.62
2023-05-12T02:28:36.907Z,62.27
2023-05-12T02:31:05.024Z,62.41
2023-05-12T02:33:32.838Z,61.01
2023-05-12T02:36:00.030Z,59.07
2023-05-12T02:38:27.580Z,60.33
2023-05-12T02:40:55.075Z,57.91
2023-05-12T02:43:23.043Z,53.46
2023-05-12T02:45:50.546Z,54.65
2023-05-12T02:48:17.858Z,56.70
2023-05-12T02:50:44.953Z,61.16
2023-05-12T02:53:12.141Z,59.09
2023-05-12T02:55:39.274Z,57.68
2023-05-12T02:58:06.420Z,61.00
2023-05-12T03:00:33.551Z,62.89
2023-05-12T03:03:00.876Z,67.12
2023-05-12T03:05:28.575Z,68.63
2023-05-12T03:07:56.138Z,69.74
2023-05-12T03:10:23.280Z,70.64
2023-05-12T03:12:50.721Z,71.62
2023-05-12T03:15:18.018Z,70.91
2023-05-12T03:17:45.333Z,69.98
2023-05-12T03:20:12.671Z,68.10
2023-05-12T03:22:39.936Z,63.72
2023-05-12T03:25:10.395Z,63.46
2023-05-12T03:27:37.831Z,59.22
2023-05-12T03:30:05.781Z,63.34
2023-05-12T03:32:39.245Z,66.88
2023-05-12T03:35:09.954Z,66.87
2023-05-12T03:37:37.521Z,65.51
2023-05-12T03:40:06.345Z,62.28
2023-05-12T03:42:33.684Z,64.28
2023-05-12T03:45:00.786Z,60.96
2023-05-12T03:47:29.353Z,60.00
2023-05-12T03:49:58.449Z,58.52
2023-05-12T03:52:25.727Z,58.77
2023-05-12T03:54:52.917Z,56.91
2023-05-12T03:57:20.663Z,54.11
2023-05-12T03:59:47.742Z,51.86
2023-05-12T04:02:15.016Z,50.36
2023-05-12T04:04:42.139Z,50.40
2023-05-12T04:07:09.232Z,50.76
2023-05-12T04:09:36.713Z,49.67
2023-05-12T04:12:04.968Z,50.73
2023-05-12T04:14:42.076Z,49.96
2023-05-12T04:17:11.300Z,48.64
2023-05-12T04:19:38.765Z,48.85
2023-05-12T04:22:06.297Z,51.51
2023-05-12T04:24:33.383Z,47.55
2023-05-12T04:27:00.643Z,49.44
2023-05-12T04:29:28.702Z,47.20
2023-05-12T04:31:56.121Z,47.65
2023-05-12T04:34:23.348Z,51.19
2023-05-12T04:36:50.479Z,47.82
2023-05-12T04:39:17.841Z,47.72
2023-05-12T04:41:44.920Z,46.79
2023-05-12T04:44:12.536Z,47.02
2023-05-12T04:46:40.605Z,47.15
2023-05-12T04:49:07.790Z,48.21
2023-05-12T04:51:34.976Z,45.62
2023-05-12T04:54:02.369Z,45.17
2023-05-12T04:56:29.624Z,45.49
2023-05-12T04:58:57.199Z,45.17
2023-05-12T05:01:24.456Z,45.33
2023-05-12T05:03:52.008Z,45.22
2023-05-12T05:06:20.142Z,45.82
2023-05-12T05:08:49.293Z,47.44
2023-05-12T05:11:17.650Z,47.71
2023-05-12T05:13:46.054Z,46.50
2023-05-12T05:16:13.233Z,45.62
2023-05-12T05:18:46.599Z,46.30
2023-05-12T05:21:14.662Z,46.26
2023-05-12T05:23:42.562Z,45.77
2023-05-12T05:26:10.010Z,45.33
2023-05-12T05:28:40.110Z,46.01
2023-05-12T05:31:08.389Z,45.29
2023-05-12T05:33:35.683Z,44.77
2023-05-12T05:36:04.399Z,44.22
2023-05-12T05:38:32.807Z,44.07
2023-05-12T05:40:59.902Z,44.41
2023-05-12T05:43:28.269Z,44.55
2023-05-12T05:45:58.753Z,43.77
2023-05-12T05:48:26.534Z,43.49
2023-05-12T05:50:54.931Z,44.03
2023-05-12T05:53:24.121Z,44.53
2023-05-12T05:55:52.563Z,43.00
2023-05-12T05:58:19.706Z,43.03
2023-05-12T06:00:47.636Z,42.75
2023-05-12T06:03:14.949Z,43.59
2023-05-12T06:05:44.002Z,42.77
2023-05-12T06:08:13.540Z,42.75
2023-05-12T06:10:43.792Z,42.19
2023-05-12T06:13:10.981Z,41.23
2023-05-12T06:15:39.164Z,41.11
2023-05-12T06:18:06.353Z,41.71
2023-05-12T06:20:33.530Z,41.33
2023-05-12T06:23:02.225Z,41.70
2023-05-12T06:25:29.393Z,40.90
2023-05-12T06:27:56.505Z,41.16
2023-05-12T06:30:23.647Z,40.44
2023-05-12T06:32:56.107Z,40.12
2023-05-12T06:35:23.359Z,38.15
2023-05-12T06:37:51.110Z,37.96
2023-05-12T06:40:18.437Z,38.33
2023-05-12T06:42:46.828Z,37.82
2023-05-12T06:45:20.424Z,37.67
2023-05-12T06:47:47.833Z,37.47
2023-05-12T06:50:17.131Z,36.70
2023-05-12T06:52:45.097Z,35.73
2023-05-12T06:55:12.651Z,33.89
2023-05-12T06:57:39.817Z,34.91
2023-05-12T07:00:07.774Z,33.61
2023-05-12T07:02:35.066Z,33.83
2023-05-12T07:05:02.316Z,33.18
2023-05-12T07:07:31.940Z,33.51
2023-05-12T07:09:59.032Z,33.65
2023-05-12T07:12:26.104Z,33.01
2023-05-12T07:14:53.138Z,31.31
2023-05-12T07:17:21.789Z,30.63
2023-05-12T07:19:49.018Z,31.10
2023-05-12T07:22:16.278Z,30.82
2023-05-12T07:24:43.593Z,30.17
2023-05-12T07:27:11.099Z,30.21
2023-05-12T07:29:38.775Z,29.53
2023-05-12T07:32:06.290Z,29.28
2023-05-12T07:34:34.101Z,28.76
2023-05-12T07:37:02.598Z,28.72
2023-05-12T07:39:32.379Z,28.24
2023-05-12T07:41:59.788Z,28.68
2023-05-12T07:44:27.900Z,28.52
2023-05-12T07:46:56.074Z,28.18
2023-05-12T07:49:23.475Z,27.70
2023-05-12T07:51:50.735Z,27.98
2023-05-12T07:54:17.917Z,27.95
2023-05-12T07:56:45.279Z,28.06
2023-05-12T07:59:14.394Z,27.55
2023-05-12T08:01:41.873Z,28.00
2023-05-12T08:04:09.431Z,27.29
2023-05-12T08:06:36.640Z,28.15
2023-05-12T08:09:04.162Z,28.76
2023-05-12T08:11:31.296Z,28.00
2023-05-12T08:13:58.420Z,27.48
2023-05-12T08:16:25.652Z,28.01
2023-05-12T08:18:52.797Z,27.98
2023-05-12T08:21:19.977Z,28.54
2023-05-12T08:23:47.139Z,27.93
2023-05-12T08:26:14.230Z,28.55
2023-05-12T08:28:41.431Z,28.50
2023-05-12T08:31:08.622Z,28.12
2023-05-12T08:33:36.425Z,28.68
2023-05-12T08:36:04.031Z,28.12
2023-05-12T08:38:32.614Z,28.35
2023-05-12T08:41:05.808Z,27.60
2023-05-12T08:43:42.435Z,27.24
2023-05-12T08:46:09.995Z,25.67
2023-05-12T08:48:39.595Z,27.12
2023-05-12T08:51:13.026Z,26.30
2023-05-12T08:53:41.736Z,25.65
2023-05-12T08:58:42.818Z,26.06
2023-05-12T09:01:11.890Z,26.12
2023-05-12T09:03:39.311Z,25.88
2023-05-12T09:06:07.216Z,25.77
2023-05-12T09:08:37.827Z,25.10
2023-05-12T09:11:05.607Z,25.11
2023-05-12T09:14:04.566Z,25.74
2023-05-12T09:16:40.106Z,26.02
2023-05-12T09:19:07.518Z,25.95
2023-05-12T09:21:34.988Z,25.22
2023-05-12T09:24:07.047Z,24.22
2023-05-12T09:26:50.478Z,24.56
2023-05-12T09:29:30.488Z,25.53
2023-05-12T09:32:02.418Z,24.57
2023-05-12T09:34:32.052Z,24.60
2023-05-12T09:37:02.038Z,25.38
2023-05-12T09:39:29.288Z,24.56
2023-05-12T09:41:57.142Z,25.42
2023-05-12T09:44:25.678Z,25.36
2023-05-12T09:46:53.045Z,25.22
2023-05-12T09:49:26.926Z,24.82
2023-05-12T09:51:58.788Z,25.72
2023-05-12T09:54:26.507Z,25.24
2023-05-12T09:56:58.824Z,25.60
2023-05-12T09:59:35.453Z,25.06
2023-05-12T10:02:06.683Z,25.59
2023-05-12T10:04:58.361Z,25.73
2023-05-12T10:07:27.957Z,24.99
2023-05-12T10:10:01.124Z,25.27
2023-05-12T10:12:28.799Z,25.86
2023-05-12T10:14:56.897Z,25.91
2023-05-12T10:17:26.810Z,26.31
2023-05-12T10:19:55.171Z,25.49
2023-05-12T10:22:24.146Z,25.83
2023-05-12T10:24:51.965Z,25.15
2023-05-12T10:27:19.680Z,25.80
2023-05-12T10:29:48.328Z,24.96
2023-05-12T10:32:16.042Z,25.04
2023-05-12T10:34:43.558Z,25.10
2023-05-12T10:37:11.716Z,23.95
2023-05-12T10:39:52.820Z,24.77
2023-05-12T10:42:27.008Z,25.06
2023-05-12T10:44:56.593Z,24.83
2023-05-12T10:47:29.476Z,25.18
2023-05-12T10:50:00.456Z,24.91
2023-05-12T10:52:27.588Z,25.17
2023-05-12T10:55:02.104Z,25.87
2023-05-12T10:57:33.950Z,25.42
2023-05-12T11:00:03.614Z,26.48
2023-05-12T11:02:38.394Z,26.03
2023-05-12T11:05:14.633Z,25.60
2023-05-12T11:07:50.180Z,25.63
2023-05-12T11:10:18.253Z,25.64
2023-05-12T11:12:47.922Z,26.08
2023-05-12T11:15:17.256Z,25.68
2023-05-12T11:17:46.250Z,26.22
2023-05-12T11:20:23.409Z,25.75
2023-05-12T11:22:51.222Z,25.54
2023-05-12T11:25:19.148Z,25.92
2023-05-12T11:27:53.381Z,25.80
2023-05-12T11:30:20.524Z,25.98
2023-05-12T11:32:47.952Z,26.02
2023-05-12T11:35:19.606Z,26.66
2023-05-12T11:37:47.473Z,25.74
2023-05-12T11:40:22.535Z,25.55
2023-05-12T11:42:55.934Z,25.27
2023-05-12T11:45:28.950Z,25.47
2023-05-12T11:48:08.985Z,25.18
2023-05-12T11:50:43.709Z,24.82
2023-05-12T11:53:19.027Z,24.91
2023-05-12T11:55:52.988Z,25.29
2023-05-12T11:58:29.298Z,24.77
2023-05-12T12:00:57.488Z,24.67
2023-05-12T12:03:25.271Z,24.81
2023-05-12T12:06:03.687Z,24.90
2023-05-12T12:08:31.136Z,24.82
2023-05-12T12:10:58.356Z,24.60
2023-05-12T12:13:26.361Z,24.21
2023-05-12T12:15:53.628Z,23.94
2023-05-12T12:18:21.249Z,24.73
2023-05-12T12:20:48.874Z,24.05
2023-05-12T12:23:16.195Z,24.07
2023-05-12T12:25:43.774Z,24.83
2023-05-12T12:28:11.099Z,24.45
2023-05-12T12:30:38.657Z,24.71
2023-05-12T12:33:05.811Z,24.41
2023-05-12T12:35:32.935Z,24.28
2023-05-12T12:38:00.614Z,24.41
2023-05-12T12:40:27.798Z,24.79
2023-05-12T12:42:54.891Z,24.95
2023-05-12T12:45:22.332Z,25.00
2023-05-12T12:47:52.609Z,24.34
2023-05-12T12:50:19.794Z,24.26
2023-05-12T12:52:48.178Z,24.53
2023-05-12T12:55:15.372Z,24.41
2023-05-12T12:57:42.588Z,24.73
2023-05-12T13:00:10.316Z,24.57
2023-05-12T13:02:38.042Z,24.38
2023-05-12T13:05:07.284Z,24.29
2023-05-12T13:07:34.899Z,24.57
2023-05-12T13:10:03.283Z,24.45
2023-05-12T13:12:33.258Z,24.55
2023-05-12T13:15:01.024Z,24.91
2023-05-12T13:17:30.305Z,24.33
2023-05-12T13:19:59.177Z,25.04
2023-05-12T13:22:27.807Z,24.90
2023-05-12T13:24:56.172Z,25.21
2023-05-12T13:27:23.234Z,25.39
2023-05-12T13:29:50.546Z,25.25
2023-05-12T13:32:17.731Z,25.60
2023-05-12T13:34:44.764Z,25.21
2023-05-12T13:37:11.813Z,25.23
2023-05-12T13:39:38.901Z,25.29
2023-05-12T13:42:06.483Z,24.52
2023-05-12T13:44:33.684Z,25.31
2023-05-12T13:47:01.005Z,25.42
2023-05-12T13:49:28.112Z,24.57
2023-05-12T13:51:55.271Z,25.66
2023-05-12T13:54:22.479Z,25.10
2023-05-12T13:56:49.548Z,25.24
2023-05-12T13:59:16.672Z,25.04
2023-05-12T14:01:44.577Z,25.60
2023-05-12T14:04:12.265Z,25.64
2023-05-12T14:06:39.861Z,25.66
2023-05-12T14:09:07.049Z,25.62
2023-05-12T14:11:35.134Z,25.37
2023-05-12T14:14:03.534Z,25.42
2023-05-12T14:16:30.815Z,25.21
2023-05-12T14:19:00.201Z,24.90
2023-05-12T14:21:27.738Z,25.34
2023-05-12T14:23:54.893Z,25.21
2023-05-12T14:26:22.678Z,24.85
2023-05-12T14:28:50.048Z,24.34
2023-05-12T14:31:17.535Z,24.25
2023-05-12T14:33:45.040Z,24.54
2023-05-12T14:36:12.166Z,24.49
2023-05-12T14:38:39.277Z,24.81
2023-05-12T14:41:08.508Z,26.07
2023-05-12T14:43:36.065Z,25.04
2023-05-12T14:46:04.544Z,25.15
2023-05-12T14:48:31.851Z,25.06
2023-05-12T14:50:59.023Z,25.43
2023-05-12T14:53:26.300Z,25.28
2023-05-12T14:55:53.447Z,25.49
2023-05-12T14:58:24.485Z,25.26
2023-05-12T15:00:52.260Z,25.89
2023-05-12T15:03:21.330Z,25.24
2023-05-12T15:08:21.989Z,25.00
2023-05-12T15:10:49.299Z,25.27
2023-05-12T15:13:19.884Z,25.27
2023-05-12T15:15:47.020Z,25.42
2023-05-12T15:18:14.234Z,25.46
2023-05-12T15:20:41.411Z,25.96
2023-05-12T15:23:08.520Z,26.17
2023-05-12T15:25:39.241Z,26.05
2023-05-12T15:28:06.775Z,26.09
2023-05-12T15:30:35.843Z,25.76
2023-05-12T15:33:06.670Z,25.92
2023-05-12T15:35:34.332Z,26.10
2023-05-12T15:38:01.471Z,25.88
2023-05-12T15:40:30.947Z,25.18
2023-05-12T15:42:58.476Z,23.85
2023-05-12T15:45:25.757Z,24.33
2023-05-12T15:47:53.019Z,24.28
2023-05-12T15:50:22.946Z,25.08
2023-05-12T15:52:51.170Z,25.51
2023-05-12T15:55:18.760Z,25.14
2023-05-12T15:57:47.804Z,25.77
2023-05-12T16:00:15.684Z,25.95
2023-05-12T16:02:43.901Z,24.77
2023-05-12T16:05:12.200Z,25.79
2023-05-12T16:07:39.713Z,25.92
2023-05-12T16:10:07.266Z,26.36
2023-05-12T16:12:34.560Z,26.24
2023-05-12T16:15:02.442Z,26.26
2023-05-12T16:17:34.329Z,25.93
2023-05-12T16:20:02.157Z,26.01
2023-05-12T16:22:32.091Z,26.58
2023-05-12T16:24:59.307Z,26.24
2023-05-12T16:27:26.987Z,26.24
2023-05-12T16:29:54.172Z,25.85
2023-05-12T16:32:21.287Z,25.94
2023-05-12T16:34:48.565Z,25.53
2023-05-12T16:37:15.991Z,25.91
2023-05-12T16:39:43.240Z,25.57
2023-05-12T16:42:10.687Z,25.59
2023-05-12T16:44:37.838Z,25.68
2023-05-12T16:47:05.349Z,25.75
2023-05-12T16:49:32.595Z,25.53
2023-05-12T16:51:59.746Z,25.76
2023-05-12T16:54:26.997Z,25.91
2023-05-12T16:56:54.091Z,25.86
2023-05-12T16:59:21.423Z,25.83
2023-05-12T17:01:48.651Z,25.77
2023-05-12T17:04:16.300Z,25.83
2023-05-12T17:06:43.462Z,26.05
2023-05-12T17:09:10.560Z,25.85
2023-05-12T17:11:37.756Z,26.08
2023-05-12T17:14:04.991Z,25.80
2023-05-12T17:16:32.369Z,26.04
2023-05-12T17:21:29.713Z,25.98
2023-05-12T17:23:57.300Z,25.77
2023-05-12T17:26:27.711Z,26.26
2023-05-12T17:28:56.012Z,25.65
2023-05-12T17:31:23.190Z,26.63
2023-05-12T17:33:50.459Z,26.19
2023-05-12T17:36:18.751Z,26.01
2023-05-12T17:38:46.393Z,26.35
2023-05-12T17:41:13.741Z,26.21
2023-05-12T17:43:41.598Z,26.79
2023-05-12T17:46:09.315Z,26.57
2023-05-12T17:48:38.621Z,27.42
2023-05-12T17:51:06.480Z,26.66
2023-05-12T17:53:33.689Z,27.74
2023-05-12T17:56:01.540Z,26.97
2023-05-12T17:58:28.935Z,26.83
2023-05-12T18:00:56.325Z,27.10
2023-05-12T18:03:23.971Z,27.61
2023-05-12T18:05:53.600Z,27.49
2023-05-12T18:08:21.759Z,27.34
2023-05-12T18:10:49.109Z,28.36
2023-05-12T18:13:16.480Z,27.46
2023-05-12T18:15:43.624Z,27.54
2023-05-12T18:18:11.261Z,27.42
2023-05-12T18:20:38.642Z,27.50
2023-05-12T18:23:05.974Z,27.27
2023-05-12T18:25:33.334Z,27.44
2023-05-12T18:28:00.603Z,27.82
2023-05-12T18:30:27.810Z,28.04
2023-05-12T18:32:55.306Z,28.47
2023-05-12T18:35:22.781Z,28.20
2023-05-12T18:37:50.280Z,28.03
2023-05-12T18:40:17.458Z,28.44
2023-05-12T18:42:44.605Z,28.71
2023-05-12T18:45:12.231Z,29.41
2023-05-12T18:47:40.020Z,29.02
2023-05-12T18:50:08.117Z,28.64
2023-05-12T18:52:36.003Z,30.12
2023-05-12T18:55:03.384Z,28.51
2023-05-12T18:57:33.158Z,29.87
2023-05-12T19:00:00.653Z,29.52
2023-05-12T19:02:28.072Z,30.82
2023-05-12T19:04:55.875Z,30.60
2023-05-12T19:07:23.193Z,30.81
2023-05-12T19:09:50.774Z,30.55
2023-05-12T19:12:17.915Z,30.50
2023-05-12T19:14:45.019Z,30.39
2023-05-12T19:17:12.170Z,31.03
2023-05-12T19:19:39.420Z,30.30
2023-05-12T19:22:06.821Z,30.20
2023-05-12T19:24:34.571Z,31.61
2023-05-12T19:27:01.850Z,33.67
2023-05-12T19:29:29.067Z,31.42
2023-05-12T19:31:56.317Z,33.29
2023-05-12T19:34:24.014Z,31.43
2023-05-12T19:36:52.645Z,31.82
2023-05-12T19:39:19.833Z,35.97
2023-05-12T19:41:46.924Z,35.94
2023-05-12T19:44:14.032Z,32.95
2023-05-12T19:46:41.294Z,36.23
2023-05-12T19:49:08.386Z,35.89
2023-05-12T19:51:35.533Z,37.23
2023-05-12T19:54:04.885Z,35.84
2023-05-12T19:56:32.954Z,35.19
2023-05-12T19:59:00.222Z,35.23
2023-05-12T20:01:27.578Z,35.42
2023-05-12T20:03:54.817Z,37.48
2023-05-12T20:06:22.640Z,38.68
2023-05-12T20:08:49.884Z,38.98
2023-05-12T20:11:17.002Z,37.20
2023-05-12T20:13:44.134Z,38.37
2023-05-12T20:16:11.490Z,39.17
2023-05-12T20:18:38.786Z,38.87
2023-05-12T20:21:05.939Z,37.04
2023-05-12T20:23:33.053Z,39.16
2023-05-12T20:26:00.373Z,38.62
2023-05-12T20:28:28.382Z,40.02
2023-05-12T20:30:55.679Z,40.34
2023-05-12T20:33:22.877Z,40.74
2023-05-12T20:35:50.646Z,38.31
2023-05-12T20:38:17.740Z,39.27
2023-05-12T20:40:45.377Z,40.40
2023-05-12T20:43:15.359Z,38.70
2023-05-12T20:45:42.812Z,38.94
2023-05-12T20:48:10.062Z,39.69
2023-05-12T20:50:37.343Z,40.22
2023-05-12T20:53:04.808Z,41.20
2023-05-12T20:55:34.975Z,42.33
2023-05-12T20:58:02.218Z,41.79
2023-05-12T21:00:29.480Z,41.38
2023-05-12T21:02:58.178Z,39.93
2023-05-12T21:05:25.741Z,40.87
2023-05-12T21:07:52.901Z,40.82
2023-05-12T21:10:20.784Z,41.02
2023-05-12T21:12:49.070Z,41.60
2023-05-12T21:15:16.221Z,42.71
2023-05-12T21:17:43.350Z,43.58
2023-05-12T21:20:11.888Z,43.55
2023-05-12T21:22:40.760Z,43.69
2023-05-12T21:28:45.467Z,42.81
2023-05-12T21:31:12.591Z,42.15
2023-05-12T21:33:39.756Z,42.48
2023-05-12T21:36:07.231Z,41.43
2023-05-12T21:38:34.307Z,41.86
2023-05-12T21:41:01.446Z,42.21
2023-05-12T21:43:28.895Z,43.32
2023-05-12T21:45:56.024Z,43.34
2023-05-12T21:48:23.185Z,43.19
2023-05-12T21:51:00.595Z,43.17
2023-05-12T21:53:27.806Z,43.92
2023-05-12T21:55:55.230Z,43.67
2023-05-12T21:58:23.790Z,43.59
2023-05-12T22:00:51.605Z,42.82
2023-05-12T22:03:20.575Z,44.12
2023-05-12T22:05:47.948Z,43.26
2023-05-12T22:08:16.416Z,44.33
2023-05-12T22:10:43.603Z,44.59
2023-05-12T22:13:10.792Z,44.19
2023-05-12T22:15:37.975Z,42.23
2023-05-12T22:18:05.286Z,45.77
2023-05-12T22:20:32.425Z,44.80
2023-05-12T22:22:59.646Z,42.15
2023-05-12T22:25:26.877Z,44.23
2023-05-12T22:27:53.979Z,43.49
2023-05-12T22:30:21.863Z,41.45
2023-05-12T22:32:49.190Z,41.96
2023-05-12T22:35:16.445Z,45.59
2023-05-12T22:37:44.047Z,43.61
2023-05-12T22:40:11.299Z,45.04
2023-05-12T22:42:38.384Z,43.08
2023-05-12T22:45:06.204Z,44.05
2023-05-12T22:47:33.691Z,41.76
2023-05-12T22:50:01.246Z,40.42
2023-05-12T22:52:29.482Z,40.62
2023-05-12T22:54:56.634Z,41.61
2023-05-12T22:57:23.767Z,42.41
2023-05-12T22:59:51.193Z,40.51
2023-05-12T23:02:18.319Z,44.34
2023-05-12T23:04:45.445Z,45.97
2023-05-12T23:07:12.504Z,43.94
2023-05-12T23:09:39.683Z,41.93
2023-05-12T23:12:07.262Z,40.85
2023-05-12T23:14:34.373Z,41.63
2023-05-12T23:17:01.593Z,40.87
2023-05-12T23:19:28.749Z,40.32
2023-05-12T23:21:55.986Z,42.28
2023-05-12T23:24:23.132Z,41.76
2023-05-12T23:26:50.787Z,39.83
2023-05-12T23:29:17.880Z,40.29
2023-05-12T23:31:45.013Z,40.51
2023-05-12T23:34:12.514Z,40.22
2023-05-12T23:36:39.769Z,40.31
2023-05-12T23:39:06.896Z,41.42
2023-05-12T23:41:36.381Z,40.96
2023-05-12T23:44:03.733Z,40.94
2023-05-12T23:46:30.954Z,40.78
2023-05-12T23:48:58.214Z,40.83
2023-05-12T23:51:26.022Z,40.38
2023-05-12T23:53:53.158Z,40.79
2023-05-12T23:56:20.241Z,39.85
2023-05-12T23:58:47.745Z,40.08
